createdAt,value
2018-12-14T00:01:25.412Z,52.60
2018-12-14T00:11:27.873Z,52.90
2018-12-14T00:21:30.567Z,53.20
2018-12-14T00:31:33.048Z,53.00
2018-12-14T00:41:35.516Z,52.60
2018-12-14T00:51:38.013Z,53.20
2018-12-14T01:01:40.484Z,53.20
2018-12-14T01:11:42.948Z,52.70
2018-12-14T01:21:45.419Z,53.20
2018-12-14T01:31:47.923Z,53.10
2018-12-14T01:41:50.435Z,53.00
2018-12-14T01:51:52.890Z,53.10
2018-12-14T02:01:55.353Z,52.60
2018-12-14T02:11:57.822Z,53.10
2018-12-14T02:22:00.284Z,53.00
2018-12-14T02:32:02.783Z,52.90
2018-12-14T02:42:05.285Z,53.10
2018-12-14T02:52:08.044Z,52.60
2018-12-14T03:02:10.568Z,52.60
2018-12-14T03:12:13.070Z,53.10
2018-12-14T03:22:15.752Z,52.80
2018-12-14T03:32:18.209Z,52.90
2018-12-14T03:42:20.780Z,52.90
2018-12-14T03:52:23.246Z,53.00
2018-12-14T04:02:25.694Z,53.00
2018-12-14T04:12:28.180Z,52.60
2018-12-14T04:22:30.636Z,53.00
2018-12-14T04:32:33.102Z,53.00
2018-12-14T04:42:36.062Z,53.00
2018-12-14T04:52:38.627Z,52.40
2018-12-14T05:02:41.091Z,52.40
2018-12-14T05:15:22.305Z,52.40
2018-12-14T05:25:24.774Z,52.10
2018-12-14T05:35:27.237Z,52.10
2018-12-14T05:45:29.700Z,52.10
2018-12-14T05:55:32.320Z,52.00
2018-12-14T06:13:28.110Z,52.10
2018-12-14T06:30:17.300Z,51.90
2018-12-14T06:49:38.420Z,51.90
2018-12-14T06:59:40.879Z,52.30
2018-12-14T07:09:43.340Z,52.10
2018-12-14T07:27:21.639Z,51.80
2018-12-14T07:37:24.099Z,51.60
2018-12-14T07:47:26.779Z,51.20
2018-12-14T07:57:29.290Z,50.90
2018-12-14T08:07:31.918Z,50.80
2018-12-14T08:17:34.400Z,50.70
2018-12-14T08:27:37.083Z,50.60
2018-12-14T08:37:39.548Z,50.50
2018-12-14T08:51:42.553Z,50.60
2018-12-14T09:01:45.064Z,50.60
2018-12-14T09:11:47.560Z,50.50
2018-12-14T09:21:50.055Z,50.60
2018-12-14T09:31:52.555Z,50.70
2018-12-14T09:41:55.032Z,50.30
2018-12-14T09:51:57.528Z,50.40
2018-12-14T10:02:00.060Z,50.20
2018-12-14T10:12:02.519Z,50.20
2018-12-14T10:22:05.040Z,50.00
2018-12-14T10:32:07.519Z,49.80
2018-12-14T10:42:10.088Z,49.80
2018-12-14T10:52:12.549Z,50.10
2018-12-14T11:02:15.061Z,49.40
2018-12-14T11:12:17.575Z,49.10
2018-12-14T11:22:20.057Z,49.10
2018-12-14T11:32:22.569Z,49.00
2018-12-14T11:42:25.035Z,49.60
2018-12-14T11:52:27.574Z,49.00
2018-12-14T12:07:25.353Z,48.80
2018-12-14T12:17:27.806Z,48.90
2018-12-14T12:27:30.319Z,48.80
2018-12-14T12:37:32.811Z,48.80
2018-12-14T12:47:35.271Z,49.30
2018-12-14T12:57:37.763Z,49.20
2018-12-14T13:07:40.422Z,49.30
2018-12-14T13:17:43.127Z,49.30
2018-12-14T13:27:45.587Z,49.10
2018-12-14T13:37:48.309Z,49.30
2018-12-14T13:47:50.782Z,49.00
2018-12-14T13:57:53.332Z,49.00
2018-12-14T14:07:56.276Z,48.80
2018-12-14T14:17:58.901Z,48.70
2018-12-14T14:28:01.364Z,48.70
2018-12-14T14:38:03.868Z,48.70
2018-12-14T14:48:06.447Z,49.10
2018-12-14T14:58:08.949Z,49.10
2018-12-14T15:08:11.411Z,49.00
2018-12-14T15:18:14.019Z,49.20
2018-12-14T15:28:16.479Z,49.20
2018-12-14T15:38:18.979Z,49.10
2018-12-14T15:48:22.540Z,49.10
2018-12-14T15:58:25.042Z,49.10
2018-12-14T16:08:27.512Z,49.00
2018-12-14T16:18:29.977Z,49.20
2018-12-14T16:28:32.443Z,49.20
2018-12-14T16:38:34.954Z,49.30
2018-12-14T16:48:37.409Z,49.20
2018-12-14T16:58:39.878Z,49.30
2018-12-14T17:08:42.332Z,49.50
2018-12-14T17:18:44.835Z,49.60
2018-12-14T17:28:47.409Z,49.10
2018-12-14T17:38:49.872Z,49.40
2018-12-14T17:48:52.412Z,49.40
2018-12-14T17:58:54.881Z,50.00
2018-12-14T18:08:57.388Z,49.50
2018-12-14T18:19:00.004Z,50.00
2018-12-14T18:29:02.557Z,50.00
2018-12-14T18:39:06.895Z,49.70
2018-12-14T18:49:09.443Z,50.20
2018-12-14T18:59:12.345Z,50.20
2018-12-14T19:09:15.198Z,50.30
2018-12-14T19:19:17.651Z,49.60
2018-12-14T19:29:20.124Z,49.90
2018-12-14T19:39:22.631Z,50.40
2018-12-14T19:49:25.101Z,50.50
2018-12-14T19:59:27.556Z,50.70
2018-12-14T20:09:30.162Z,51.00
2018-12-14T20:19:32.640Z,51.10
2018-12-14T20:29:35.117Z,50.80
2018-12-14T20:39:37.583Z,51.30
2018-12-14T20:49:40.046Z,51.00
2018-12-14T20:59:42.515Z,51.40
2018-12-14T21:09:44.978Z,51.40
2018-12-14T21:19:47.518Z,51.50
2018-12-14T21:29:50.119Z,51.50
2018-12-14T21:39:52.588Z,51.30
2018-12-14T21:49:55.129Z,51.70
2018-12-14T21:59:57.593Z,51.60
2018-12-14T22:10:00.130Z,51.60
2018-12-14T22:20:02.615Z,50.80
2018-12-14T22:30:05.509Z,51.00
2018-12-14T22:40:08.071Z,50.30
2018-12-14T22:50:10.559Z,50.90
2018-12-14T23:00:15.231Z,50.70
2018-12-14T23:10:17.695Z,50.70
2018-12-14T23:20:20.168Z,50.60
2018-12-14T23:30:22.706Z,50.60
2018-12-14T23:40:25.151Z,50.50
2018-12-14T23:50:27.620Z,50.70
